sensor_id;sensor_type;location;lat;lon;timestamp;pressure;altitude;pressure_sealevel;temperature;humidity
61571;BME280;47463;49.884;10.010;2023-05-09T00:00:01;102190;;;13.5;77
61571;BME280;47463;49.884;10.010;2023-05-09T00:05:01;102180;;;13.5;79
61571;BME280;47463;49.884;10.010;2023-05-09T00:10:01;102170;;;13.5;78
61571;BME280;47463;49.884;10.010;2023-05-09T00:15:01;102180;;;13.7;75
61571;BME280;47463;49.884;10.010;2023-05-09T00:20:01;102180;;;13.7;74
61571;BME280;47463;49.884;10.010;2023-05-09T00:25:01;102160;;;13.6;75
61571;BME280;47463;49.884;10.010;2023-05-09T00:30:02;102170;;;13.5;76
61571;BME280;47463;49.884;10.010;2023-05-09T00:35:01;102170;;;13.3;77
61571;BME280;47463;49.884;10.010;2023-05-09T00:40:01;102170;;;13.1;78
61571;BME280;47463;49.884;10.010;2023-05-09T00:45:01;102170;;;13;79
61571;BME280;47463;49.884;10.010;2023-05-09T00:50:01;102170;;;13;79
61571;BME280;47463;49.884;10.010;2023-05-09T00:55:01;102150;;;12.8;79
61571;BME280;47463;49.884;10.010;2023-05-09T01:00:01;102140;;;12.8;79
61571;BME280;47463;49.884;10.010;2023-05-09T01:05:01;102150;;;12.8;79
61571;BME280;47463;49.884;10.010;2023-05-09T01:10:01;102130;;;12.9;77
61571;BME280;47463;49.884;10.010;2023-05-09T01:15:02;102140;;;12.8;78
61571;BME280;47463;49.884;10.010;2023-05-09T01:20:02;102140;;;12.8;78
61571;BME280;47463;49.884;10.010;2023-05-09T01:25:05;102140;;;12.7;76
61571;BME280;47463;49.884;10.010;2023-05-09T01:30:01;102130;;;12.7;75
61571;BME280;47463;49.884;10.010;2023-05-09T01:35:01;102130;;;12.7;75
61571;BME280;47463;49.884;10.010;2023-05-09T01:40:03;102130;;;12.6;75
61571;BME280;47463;49.884;10.010;2023-05-09T01:45:01;102120;;;12.4;75
61571;BME280;47463;49.884;10.010;2023-05-09T01:50:01;102120;;;12.4;75
61571;BME280;47463;49.884;10.010;2023-05-09T01:55:01;102110;;;12.4;74
61571;BME280;47463;49.884;10.010;2023-05-09T02:00:01;102110;;;12.2;76
61571;BME280;47463;49.884;10.010;2023-05-09T02:05:01;102120;;;12;77
61571;BME280;47463;49.884;10.010;2023-05-09T02:10:01;102110;;;11.9;78
61571;BME280;47463;49.884;10.010;2023-05-09T02:15:01;102100;;;11.9;78
61571;BME280;47463;49.884;10.010;2023-05-09T02:20:01;102110;;;11.9;77
61571;BME280;47463;49.884;10.010;2023-05-09T02:25:01;102110;;;12;76
61571;BME280;47463;49.884;10.010;2023-05-09T02:30:02;102100;;;12;76
61571;BME280;47463;49.884;10.010;2023-05-09T02:35:01;102100;;;11.7;78
61571;BME280;47463;49.884;10.010;2023-05-09T02:40:01;102110;;;11.2;80
61571;BME280;47463;49.884;10.010;2023-05-09T02:45:01;102100;;;10.9;82
61571;BME280;47463;49.884;10.010;2023-05-09T02:50:01;102110;;;10.8;82
61571;BME280;47463;49.884;10.010;2023-05-09T02:55:01;102110;;;10.7;83
61571;BME280;47463;49.884;10.010;2023-05-09T03:00:01;102100;;;10.6;83
61571;BME280;47463;49.884;10.010;2023-05-09T03:05:01;102100;;;10.5;83
61571;BME280;47463;49.884;10.010;2023-05-09T03:10:01;102100;;;10.4;83
61571;BME280;47463;49.884;10.010;2023-05-09T03:15:01;102090;;;10.2;84
61571;BME280;47463;49.884;10.010;2023-05-09T03:20:01;102090;;;10.1;84
61571;BME280;47463;49.884;10.010;2023-05-09T03:25:01;102090;;;10;84
61571;BME280;47463;49.884;10.010;2023-05-09T03:30:01;102090;;;10;85
61571;BME280;47463;49.884;10.010;2023-05-09T03:35:01;102080;;;10;84
61571;BME280;47463;49.884;10.010;2023-05-09T03:40:01;102080;;;10;85
61571;BME280;47463;49.884;10.010;2023-05-09T03:45:01;102080;;;10.1;85
61571;BME280;47463;49.884;10.010;2023-05-09T03:50:01;102080;;;10.1;85
61571;BME280;47463;49.884;10.010;2023-05-09T03:55:01;102070;;;10.1;85
61571;BME280;47463;49.884;10.010;2023-05-09T04:00:01;102080;;;10.2;84
61571;BME280;47463;49.884;10.010;2023-05-09T04:05:01;102080;;;10.2;84
61571;BME280;47463;49.884;10.010;2023-05-09T04:10:01;102070;;;10.3;84
61571;BME280;47463;49.884;10.010;2023-05-09T04:15:01;102060;;;10.4;83
61571;BME280;47463;49.884;10.010;2023-05-09T04:20:01;102080;;;10.5;83
61571;BME280;47463;49.884;10.010;2023-05-09T04:25:01;102080;;;10.6;83
61571;BME280;47463;49.884;10.010;2023-05-09T04:30:01;102080;;;11.2;81
61571;BME280;47463;49.884;10.010;2023-05-09T04:35:01;102070;;;11.4;79
61571;BME280;47463;49.884;10.010;2023-05-09T04:40:01;102070;;;11.4;79
61571;BME280;47463;49.884;10.010;2023-05-09T04:45:01;102070;;;11.4;79
61571;BME280;47463;49.884;10.010;2023-05-09T04:50:01;102070;;;11.5;79
61571;BME280;47463;49.884;10.010;2023-05-09T04:55:01;102080;;;11.7;78
61571;BME280;47463;49.884;10.010;2023-05-09T05:00:01;102080;;;12;77
61571;BME280;47463;49.884;10.010;2023-05-09T05:05:01;102090;;;12.4;76
61571;BME280;47463;49.884;10.010;2023-05-09T05:10:01;102080;;;12.9;74
61571;BME280;47463;49.884;10.010;2023-05-09T05:15:01;102080;;;13.1;72
61571;BME280;47463;49.884;10.010;2023-05-09T05:20:01;102070;;;13.4;72
61571;BME280;47463;49.884;10.010;2023-05-09T05:25:01;102070;;;13.3;72
61571;BME280;47463;49.884;10.010;2023-05-09T05:30:01;102070;;;13.1;72
61571;BME280;47463;49.884;10.010;2023-05-09T05:35:01;102070;;;13.1;72
61571;BME280;47463;49.884;10.010;2023-05-09T05:40:01;102070;;;13.4;72
61571;BME280;47463;49.884;10.010;2023-05-09T05:45:01;102070;;;13.5;71
61571;BME280;47463;49.884;10.010;2023-05-09T05:50:01;102070;;;13.7;71
61571;BME280;47463;49.884;10.010;2023-05-09T05:55:01;102060;;;13.9;70
61571;BME280;47463;49.884;10.010;2023-05-09T06:00:01;102070;;;14;70
61571;BME280;47463;49.884;10.010;2023-05-09T06:05:01;102070;;;13.9;69
61571;BME280;47463;49.884;10.010;2023-05-09T06:10:01;102050;;;14;68
61571;BME280;47463;49.884;10.010;2023-05-09T06:15:01;102050;;;14.7;66
61571;BME280;47463;49.884;10.010;2023-05-09T06:20:01;102040;;;14.8;64
61571;BME280;47463;49.884;10.010;2023-05-09T06:25:01;102040;;;15.1;64
61571;BME280;47463;49.884;10.010;2023-05-09T06:30:01;102040;;;15.3;63
61571;BME280;47463;49.884;10.010;2023-05-09T06:35:01;102040;;;15.3;62
61571;BME280;47463;49.884;10.010;2023-05-09T06:40:01;102030;;;15.3;61
61571;BME280;47463;49.884;10.010;2023-05-09T06:45:01;102040;;;15.6;60
61571;BME280;47463;49.884;10.010;2023-05-09T06:50:01;102030;;;16.2;59
61571;BME280;47463;49.884;10.010;2023-05-09T06:55:01;102020;;;16.1;57
61571;BME280;47463;49.884;10.010;2023-05-09T07:00:01;102010;;;16.2;57
61571;BME280;47463;49.884;10.010;2023-05-09T07:05:01;102010;;;15.9;57
61571;BME280;47463;49.884;10.010;2023-05-09T07:10:01;102000;;;15.5;57
61571;BME280;47463;49.884;10.010;2023-05-09T07:15:01;101990;;;15.2;57
61571;BME280;47463;49.884;10.010;2023-05-09T07:20:01;101990;;;15.4;57
61571;BME280;47463;49.884;10.010;2023-05-09T07:25:01;101980;;;15.6;58
61571;BME280;47463;49.884;10.010;2023-05-09T07:30:01;101980;;;15.6;58
61571;BME280;47463;49.884;10.010;2023-05-09T07:35:01;101970;;;15.5;57
61571;BME280;47463;49.884;10.010;2023-05-09T07:40:01;101960;;;15.5;57
61571;BME280;47463;49.884;10.010;2023-05-09T07:45:01;101960;;;16;56
61571;BME280;47463;49.884;10.010;2023-05-09T07:50:01;101950;;;16;54
61571;BME280;47463;49.884;10.010;2023-05-09T07:55:01;101940;;;16.4;55
61571;BME280;47463;49.884;10.010;2023-05-09T08:00:01;101930;;;16.3;55
61571;BME280;47463;49.884;10.010;2023-05-09T08:05:01;101930;;;16.6;54
61571;BME280;47463;49.884;10.010;2023-05-09T08:10:01;101930;;;16.9;52
61571;BME280;47463;49.884;10.010;2023-05-09T08:15:01;101920;;;16.7;52
61571;BME280;47463;49.884;10.010;2023-05-09T08:20:01;101910;;;16.4;52
61571;BME280;47463;49.884;10.010;2023-05-09T08:25:01;101920;;;16.3;53
61571;BME280;47463;49.884;10.010;2023-05-09T08:30:01;101920;;;16.4;54
61571;BME280;47463;49.884;10.010;2023-05-09T08:35:01;101910;;;16.5;53
61571;BME280;47463;49.884;10.010;2023-05-09T08:40:01;101900;;;16.5;53
61571;BME280;47463;49.884;10.010;2023-05-09T08:45:01;101890;;;16.5;54
61571;BME280;47463;49.884;10.010;2023-05-09T08:50:01;101890;;;16.4;53
61571;BME280;47463;49.884;10.010;2023-05-09T08:55:01;101870;;;16.7;53
61571;BME280;47463;49.884;10.010;2023-05-09T09:00:01;101870;;;17.1;51
61571;BME280;47463;49.884;10.010;2023-05-09T09:05:01;101870;;;17.1;50
61571;BME280;47463;49.884;10.010;2023-05-09T09:10:01;101860;;;17.2;51
61571;BME280;47463;49.884;10.010;2023-05-09T09:15:02;101850;;;17.1;50
61571;BME280;47463;49.884;10.010;2023-05-09T09:20:02;101840;;;17.4;49
61571;BME280;47463;49.884;10.010;2023-05-09T09:25:01;101830;;;17.3;48
61571;BME280;47463;49.884;10.010;2023-05-09T09:30:05;101810;;;17.5;47
61571;BME280;47463;49.884;10.010;2023-05-09T09:35:04;101800;;;17.9;46
61571;BME280;47463;49.884;10.010;2023-05-09T09:40:01;101800;;;17.8;44
61571;BME280;47463;49.884;10.010;2023-05-09T09:45:01;101790;;;17.6;45
61571;BME280;47463;49.884;10.010;2023-05-09T09:50:03;101770;;;17.7;44
61571;BME280;47463;49.884;10.010;2023-05-09T09:55:01;101760;;;18;43
61571;BME280;47463;49.884;10.010;2023-05-09T10:00:01;101750;;;18.2;43
61571;BME280;47463;49.884;10.010;2023-05-09T10:05:08;101740;;;18.2;43
61571;BME280;47463;49.884;10.010;2023-05-09T10:10:01;101730;;;18.3;43
61571;BME280;47463;49.884;10.010;2023-05-09T10:15:01;101730;;;18.7;45
61571;BME280;47463;49.884;10.010;2023-05-09T10:20:01;101710;;;18.8;44
61571;BME280;47463;49.884;10.010;2023-05-09T10:25:01;101710;;;19.2;42
61571;BME280;47463;49.884;10.010;2023-05-09T10:30:01;101700;;;19.5;43
61571;BME280;47463;49.884;10.010;2023-05-09T10:35:03;101690;;;19.4;38
61571;BME280;47463;49.884;10.010;2023-05-09T10:40:02;101690;;;19.8;40
61571;BME280;47463;49.884;10.010;2023-05-09T10:45:01;101680;;;20;40
61571;BME280;47463;49.884;10.010;2023-05-09T10:50:01;101680;;;19.7;38
61571;BME280;47463;49.884;10.010;2023-05-09T10:55:01;101660;;;20;39
61571;BME280;47463;49.884;10.010;2023-05-09T11:00:01;101650;;;20.3;38
61571;BME280;47463;49.884;10.010;2023-05-09T11:05:17;101640;;;20.5;38
61571;BME280;47463;49.884;10.010;2023-05-09T11:10:08;101640;;;20.3;38
61571;BME280;47463;49.884;10.010;2023-05-09T11:15:04;101610;;;20.4;38
61571;BME280;47463;49.884;10.010;2023-05-09T11:20:02;101600;;;20.7;39
61571;BME280;47463;49.884;10.010;2023-05-09T11:25:02;101590;;;20.1;38
61571;BME280;47463;49.884;10.010;2023-05-09T11:30:03;101580;;;20.4;38
61571;BME280;47463;49.884;10.010;2023-05-09T11:35:04;101580;;;20.6;40
61571;BME280;47463;49.884;10.010;2023-05-09T11:40:01;101560;;;20.7;39
61571;BME280;47463;49.884;10.010;2023-05-09T11:45:01;101560;;;20.6;38
61571;BME280;47463;49.884;10.010;2023-05-09T11:50:01;101550;;;20.4;37
61571;BME280;47463;49.884;10.010;2023-05-09T11:55:01;101540;;;20.9;37
61571;BME280;47463;49.884;10.010;2023-05-09T12:00:01;101530;;;20.5;36
61571;BME280;47463;49.884;10.010;2023-05-09T12:05:08;101520;;;21;37
61571;BME280;47463;49.884;10.010;2023-05-09T12:10:01;101510;;;21.2;37
61571;BME280;47463;49.884;10.010;2023-05-09T12:15:01;101500;;;21.1;37
61571;BME280;47463;49.884;10.010;2023-05-09T12:20:01;101490;;;21;37
61571;BME280;47463;49.884;10.010;2023-05-09T12:25:03;101490;;;21.1;37
61571;BME280;47463;49.884;10.010;2023-05-09T12:30:01;101490;;;21.1;37
61571;BME280;47463;49.884;10.010;2023-05-09T12:35:01;101450;;;21;37
61571;BME280;47463;49.884;10.010;2023-05-09T12:40:01;101460;;;20.9;37
61571;BME280;47463;49.884;10.010;2023-05-09T12:45:01;101440;;;21.1;38
61571;BME280;47463;49.884;10.010;2023-05-09T12:50:01;101430;;;21.5;38
61571;BME280;47463;49.884;10.010;2023-05-09T12:55:04;101430;;;21.5;38
61571;BME280;47463;49.884;10.010;2023-05-09T13:00:01;101420;;;21.5;38
61571;BME280;47463;49.884;10.010;2023-05-09T13:10:01;101410;;;21.8;37
61571;BME280;47463;49.884;10.010;2023-05-09T13:15:01;101410;;;21.7;36
61571;BME280;47463;49.884;10.010;2023-05-09T13:20:01;101400;;;21.5;35
61571;BME280;47463;49.884;10.010;2023-05-09T13:25:01;101390;;;21.8;37
61571;BME280;47463;49.884;10.010;2023-05-09T13:30:01;101380;;;21.6;36
61571;BME280;47463;49.884;10.010;2023-05-09T13:35:01;101380;;;21.7;36
61571;BME280;47463;49.884;10.010;2023-05-09T13:40:01;101360;;;21.6;36
61571;BME280;47463;49.884;10.010;2023-05-09T13:45:01;101350;;;21.9;36
61571;BME280;47463;49.884;10.010;2023-05-09T13:50:01;101330;;;22;37
61571;BME280;47463;49.884;10.010;2023-05-09T13:55:01;101320;;;22.1;37
61571;BME280;47463;49.884;10.010;2023-05-09T14:00:01;101310;;;22.1;36
61571;BME280;47463;49.884;10.010;2023-05-09T14:05:01;101300;;;22.3;37
61571;BME280;47463;49.884;10.010;2023-05-09T14:10:01;101300;;;22.3;35
61571;BME280;47463;49.884;10.010;2023-05-09T14:15:01;101290;;;22.1;35
61571;BME280;47463;49.884;10.010;2023-05-09T14:20:01;101290;;;21.8;34
61571;BME280;47463;49.884;10.010;2023-05-09T14:25:01;101270;;;21.8;34
61571;BME280;47463;49.884;10.010;2023-05-09T14:30:01;101260;;;21.7;34
61571;BME280;47463;49.884;10.010;2023-05-09T14:35:01;101250;;;21.6;35
61571;BME280;47463;49.884;10.010;2023-05-09T14:40:01;101250;;;21.7;36
61571;BME280;47463;49.884;10.010;2023-05-09T14:45:01;101240;;;21.9;37
61571;BME280;47463;49.884;10.010;2023-05-09T14:50:01;101240;;;22.1;36
61571;BME280;47463;49.884;10.010;2023-05-09T14:55:01;101220;;;22.1;35
61571;BME280;47463;49.884;10.010;2023-05-09T15:00:01;101210;;;22.3;36
61571;BME280;47463;49.884;10.010;2023-05-09T15:05:01;101210;;;22.3;35
61571;BME280;47463;49.884;10.010;2023-05-09T15:10:01;101200;;;22.5;35
61571;BME280;47463;49.884;10.010;2023-05-09T15:15:10;101190;;;22.3;35
61571;BME280;47463;49.884;10.010;2023-05-09T15:20:01;101200;;;22.4;35
61571;BME280;47463;49.884;10.010;2023-05-09T15:25:01;101180;;;22.1;36
61571;BME280;47463;49.884;10.010;2023-05-09T15:30:01;101180;;;22;36
61571;BME280;47463;49.884;10.010;2023-05-09T15:35:01;101180;;;21.8;36
61571;BME280;47463;49.884;10.010;2023-05-09T15:40:01;101170;;;21.6;35
61571;BME280;47463;49.884;10.010;2023-05-09T15:45:01;101160;;;21.4;37
61571;BME280;47463;49.884;10.010;2023-05-09T15:50:01;101150;;;21.2;37
61571;BME280;47463;49.884;10.010;2023-05-09T15:55:01;101130;;;21.3;39
61571;BME280;47463;49.884;10.010;2023-05-09T16:00:01;101130;;;21.6;36
61571;BME280;47463;49.884;10.010;2023-05-09T16:05:01;101120;;;22.1;37
61571;BME280;47463;49.884;10.010;2023-05-09T16:10:01;101120;;;22.2;38
61571;BME280;47463;49.884;10.010;2023-05-09T16:15:01;101110;;;22;38
61571;BME280;47463;49.884;10.010;2023-05-09T16:20:01;101100;;;21.9;37
61571;BME280;47463;49.884;10.010;2023-05-09T16:25:01;101110;;;22;38
61571;BME280;47463;49.884;10.010;2023-05-09T16:30:01;101090;;;21.9;37
61571;BME280;47463;49.884;10.010;2023-05-09T16:35:01;101080;;;21.6;36
61571;BME280;47463;49.884;10.010;2023-05-09T16:40:01;101070;;;21.3;36
61571;BME280;47463;49.884;10.010;2023-05-09T16:45:01;101060;;;21.2;36
61571;BME280;47463;49.884;10.010;2023-05-09T16:50:01;101050;;;21;35
61571;BME280;47463;49.884;10.010;2023-05-09T16:55:01;101060;;;20.9;36
61571;BME280;47463;49.884;10.010;2023-05-09T17:00:01;101050;;;20.9;36
61571;BME280;47463;49.884;10.010;2023-05-09T17:05:01;101040;;;20.8;37
61571;BME280;47463;49.884;10.010;2023-05-09T17:10:01;101040;;;20.7;37
61571;BME280;47463;49.884;10.010;2023-05-09T17:15:01;101020;;;20.7;38
61571;BME280;47463;49.884;10.010;2023-05-09T17:20:01;101020;;;20.5;38
61571;BME280;47463;49.884;10.010;2023-05-09T17:25:01;101010;;;20.5;38
61571;BME280;47463;49.884;10.010;2023-05-09T17:30:01;101010;;;20.3;39
61571;BME280;47463;49.884;10.010;2023-05-09T17:35:01;101010;;;20.2;39
61571;BME280;47463;49.884;10.010;2023-05-09T17:40:01;101000;;;19.9;40
61571;BME280;47463;49.884;10.010;2023-05-09T17:45:01;101000;;;19.9;40
61571;BME280;47463;49.884;10.010;2023-05-09T17:50:01;101000;;;19.9;40
61571;BME280;47463;49.884;10.010;2023-05-09T17:55:01;101010;;;19.8;40
61571;BME280;47463;49.884;10.010;2023-05-09T18:00:01;101000;;;19.7;41
61571;BME280;47463;49.884;10.010;2023-05-09T18:05:01;101010;;;19.6;42
61571;BME280;47463;49.884;10.010;2023-05-09T18:10:01;101000;;;19.4;42
61571;BME280;47463;49.884;10.010;2023-05-09T18:15:01;100990;;;19.3;42
61571;BME280;47463;49.884;10.010;2023-05-09T18:20:01;100990;;;19.2;42
61571;BME280;47463;49.884;10.010;2023-05-09T18:25:01;100990;;;19.1;43
61571;BME280;47463;49.884;10.010;2023-05-09T18:30:01;101000;;;18.8;44
61571;BME280;47463;49.884;10.010;2023-05-09T18:35:01;100990;;;18.6;45
61571;BME280;47463;49.884;10.010;2023-05-09T18:40:01;100990;;;18.5;45
61571;BME280;47463;49.884;10.010;2023-05-09T18:45:01;100990;;;18.4;46
61571;BME280;47463;49.884;10.010;2023-05-09T18:50:01;100990;;;18.3;46
61571;BME280;47463;49.884;10.010;2023-05-09T18:55:01;100990;;;18.2;46
61571;BME280;47463;49.884;10.010;2023-05-09T19:00:01;101000;;;18.2;46
61571;BME280;47463;49.884;10.010;2023-05-09T19:05:01;100990;;;18.1;46
61571;BME280;47463;49.884;10.010;2023-05-09T19:10:01;100990;;;18;46
61571;BME280;47463;49.884;10.010;2023-05-09T19:15:01;100990;;;18;46
61571;BME280;47463;49.884;10.010;2023-05-09T19:20:01;100990;;;17.8;46
61571;BME280;47463;49.884;10.010;2023-05-09T19:25:01;100990;;;17.6;47
61571;BME280;47463;49.884;10.010;2023-05-09T19:30:01;100990;;;17.4;47
61571;BME280;47463;49.884;10.010;2023-05-09T19:35:01;101010;;;17.4;47
61571;BME280;47463;49.884;10.010;2023-05-09T19:40:01;101010;;;17.6;47
61571;BME280;47463;49.884;10.010;2023-05-09T19:45:01;101000;;;17.7;48
61571;BME280;47463;49.884;10.010;2023-05-09T19:50:01;101020;;;17.7;48
61571;BME280;47463;49.884;10.010;2023-05-09T19:55:01;101020;;;17.6;49
61571;BME280;47463;49.884;10.010;2023-05-09T20:00:01;101020;;;17.6;49
61571;BME280;47463;49.884;10.010;2023-05-09T20:05:01;101030;;;17.4;51
61571;BME280;47463;49.884;10.010;2023-05-09T20:10:01;101030;;;17.4;51
61571;BME280;47463;49.884;10.010;2023-05-09T20:15:01;101030;;;17.6;52
61571;BME280;47463;49.884;10.010;2023-05-09T20:20:01;101040;;;17.5;53
61571;BME280;47463;49.884;10.010;2023-05-09T20:25:01;101050;;;17.3;54
61571;BME280;47463;49.884;10.010;2023-05-09T20:30:01;101060;;;16.8;60
61571;BME280;47463;49.884;10.010;2023-05-09T20:35:01;101070;;;16.3;65
61571;BME280;47463;49.884;10.010;2023-05-09T20:40:01;101080;;;15.7;69
61571;BME280;47463;49.884;10.010;2023-05-09T20:45:01;101070;;;15.5;71
61571;BME280;47463;49.884;10.010;2023-05-09T20:50:01;101090;;;15.2;74
61571;BME280;47463;49.884;10.010;2023-05-09T20:55:01;101100;;;15;75
61571;BME280;47463;49.884;10.010;2023-05-09T21:00:01;101110;;;14.8;77
61571;BME280;47463;49.884;10.010;2023-05-09T21:05:01;101100;;;14.6;79
61571;BME280;47463;49.884;10.010;2023-05-09T21:10:01;101100;;;14.5;81
61571;BME280;47463;49.884;10.010;2023-05-09T21:15:01;101090;;;14.4;81
61571;BME280;47463;49.884;10.010;2023-05-09T21:20:01;101080;;;14.4;82
61571;BME280;47463;49.884;10.010;2023-05-09T21:25:01;101080;;;14.3;83
61571;BME280;47463;49.884;10.010;2023-05-09T21:30:01;101070;;;14.3;83
61571;BME280;47463;49.884;10.010;2023-05-09T21:35:01;101070;;;14.3;83
61571;BME280;47463;49.884;10.010;2023-05-09T21:40:01;101060;;;14.2;83
61571;BME280;47463;49.884;10.010;2023-05-09T21:45:01;101070;;;14.2;83
61571;BME280;47463;49.884;10.010;2023-05-09T21:50:01;101080;;;14.2;84
61571;BME280;47463;49.884;10.010;2023-05-09T21:55:01;101070;;;14.1;84
61571;BME280;47463;49.884;10.010;2023-05-09T22:00:01;101050;;;14.1;84
61571;BME280;47463;49.884;10.010;2023-05-09T22:05:01;101060;;;14.1;85
61571;BME280;47463;49.884;10.010;2023-05-09T22:10:01;101070;;;14;85
61571;BME280;47463;49.884;10.010;2023-05-09T22:15:01;101050;;;14.1;85
61571;BME280;47463;49.884;10.010;2023-05-09T22:20:01;101060;;;14;86
61571;BME280;47463;49.884;10.010;2023-05-09T22:25:01;101050;;;14;86
61571;BME280;47463;49.884;10.010;2023-05-09T22:30:01;101050;;;14;86
61571;BME280;47463;49.884;10.010;2023-05-09T22:35:01;101040;;;14;86
61571;BME280;47463;49.884;10.010;2023-05-09T22:40:01;101040;;;13.9;86
61571;BME280;47463;49.884;10.010;2023-05-09T22:45:01;101040;;;13.9;87
61571;BME280;47463;49.884;10.010;2023-05-09T22:50:01;101040;;;13.8;87
61571;BME280;47463;49.884;10.010;2023-05-09T22:55:01;101030;;;13.8;88
61571;BME280;47463;49.884;10.010;2023-05-09T23:00:01;101040;;;13.8;89
61571;BME280;47463;49.884;10.010;2023-05-09T23:05:01;101030;;;13.8;89
61571;BME280;47463;49.884;10.010;2023-05-09T23:10:01;101030;;;13.8;89
61571;BME280;47463;49.884;10.010;2023-05-09T23:15:01;101030;;;13.7;89
61571;BME280;47463;49.884;10.010;2023-05-09T23:20:01;101030;;;13.7;89
61571;BME280;47463;49.884;10.010;2023-05-09T23:25:01;101030;;;13.7;90
61571;BME280;47463;49.884;10.010;2023-05-09T23:30:01;101040;;;13.6;90
61571;BME280;47463;49.884;10.010;2023-05-09T23:35:01;101030;;;13.6;90
61571;BME280;47463;49.884;10.010;2023-05-09T23:40:01;101030;;;13.5;91
61571;BME280;47463;49.884;10.010;2023-05-09T23:45:01;101030;;;13.5;91
61571;BME280;47463;49.884;10.010;2023-05-09T23:50:01;101020;;;13.5;91
61571;BME280;47463;49.884;10.010;2023-05-09T23:55:01;101020;;;13.5;91
